Terminal Aerodrome Forecast
Issued by NWS Boston, MA

Home | Current Version | Previous Version | Text Only | Print | Product List | Glossary On
Versions: 1 2 3 4 5 6 7 8 9 10 11 12 13 14 15 16 17 18 19 20 21 22 23 24 25 26 27 28 29 30 31 32 33 34 35 36 37 38 39 40 41 42
454
FTUS41 KBOX 072343
TAFPVD
TAF
KPVD 072343Z 0800/0824 04005KT P6SM OVC200
     FM080400 04009KT P6SM OVC120
     FM080600 04010KT P6SM VCSH OVC025
     FM080800 04012KT P6SM VCSH OVC015
     FM081000 04013KT 1/2SM -SN FG OVC015
     FM081100 03014KT 1/2SM SN FG OVC015
     FM081200 03015KT 1/4SM +SN FG OVC015
     FM081800 02016G30KT 2SM -SN BR OVC015=

USA.gov is the U.S. government's official web portal to all federal, state and local government web resources and services.